PPDPC SBJD-SBDN
Flight info
| Callsign | PPDPC |
|---|---|
| Flight time | N/A |
| Altitude | 23000 |
| Route | DCT BRU DCT 1957S81859W/N0200A055 VFR DCT |
| Aircraft | PC12/L-SDFGRWY/S |
Departure
| Time | N/A |
|---|---|
| Airport | Comte. Rolim Adolfo Amaro–Jundiaí State Airport (SBJD) |
Arrival
| Time | 2026-04-25 17:41 |
|---|---|
| Airport | Presidente Prudente Airport (SBDN) |
| Time | Latitude | Longitude | Altitude | Speed | Heading |
|---|---|---|---|---|---|
| 2026-04-25 17:40 | -22.17764 | -51.42056 | 1485 ft | 0 kts | 34° |
| 2026-04-25 17:41 | -22.17764 | -51.42057 | 1485 ft | 0 kts | 34° |
| 2026-04-25 17:41 | -22.17765 | -51.42057 | 1485 ft | 0 kts | 34° |
| 2026-04-25 17:41 | -22.17759 | -51.42053 | 1485 ft | 5 kts | 34° |
| 2026-04-25 17:42 | -22.17716 | -51.42028 | 1485 ft | 6 kts | 67° |
| 2026-04-25 17:42 | -22.17726 | -51.41952 | 1485 ft | 18 kts | 94° |
| 2026-04-25 17:42 | -22.17738 | -51.41798 | 1479 ft | 19 kts | 97° |
| 2026-04-25 17:42 | -22.17761 | -51.41644 | 1485 ft | 25 kts | 96° |
| 2026-04-25 17:43 | -22.17730 | -51.41485 | 1485 ft | 13 kts | 26° |
| 2026-04-25 17:43 | -22.17723 | -51.41483 | 1485 ft | 0 kts | 17° |
| 2026-04-25 17:43 | -22.17704 | -51.41476 | 1485 ft | 8 kts | 12° |
| 2026-04-25 17:44 | -22.17634 | -51.41514 | 1483 ft | 14 kts | 277° |
| 2026-04-25 17:44 | -22.17602 | -51.41722 | 1484 ft | 53 kts | 278° |
| 2026-04-25 17:44 | -22.17527 | -51.42282 | 1484 ft | 96 kts | 279° |
| 2026-04-25 17:44 | -22.17415 | -51.43138 | 1474 ft | 134 kts | 283° |
| 2026-04-25 17:45 | -22.17164 | -51.44013 | 2147 ft | 111 kts | 314° |
| 2026-04-25 17:45 | -22.16960 | -51.44178 | 2281 ft | 118 kts | 331° |
| 2026-04-25 17:45 | -22.15441 | -51.43833 | 2869 ft | 148 kts | 21° |
| 2026-04-25 17:45 | -22.14505 | -51.43326 | 3320 ft | 151 kts | 22° |
| 2026-04-25 17:46 | -22.13693 | -51.42610 | 3700 ft | 157 kts | 59° |
| 2026-04-25 17:46 | -22.13611 | -51.41452 | 4141 ft | 160 kts | 109° |
| 2026-04-25 17:46 | -22.14245 | -51.40492 | 4612 ft | 158 kts | 135° |
| 2026-04-25 17:46 | -22.14982 | -51.39609 | 5098 ft | 159 kts | 135° |
| 2026-04-25 17:47 | -22.15719 | -51.38722 | 5539 ft | 161 kts | 135° |
| 2026-04-25 17:47 | -22.16492 | -51.37795 | 5983 ft | 163 kts | 134° |
| 2026-04-25 17:47 | -22.17250 | -51.36882 | 6457 ft | 164 kts | 135° |